sensor_id;sensor_type;location;lat;lon;timestamp;P1;durP1;ratioP1;P2;durP2;ratioP2
57826;SDS011;43656;57.746;11.780;2024-01-11T00:02:03;312.02;;;15.40;;
57826;SDS011;43656;57.746;11.780;2024-01-11T00:04:29;305.60;;;13.40;;
57826;SDS011;43656;57.746;11.780;2024-01-11T00:06:54;203.50;;;11.80;;
57826;SDS011;43656;57.746;11.780;2024-01-11T00:09:20;350.13;;;14.05;;
57826;SDS011;43656;57.746;11.780;2024-01-11T00:11:45;370.27;;;15.82;;
57826;SDS011;43656;57.746;11.780;2024-01-11T00:14:11;231.02;;;11.35;;
57826;SDS011;43656;57.746;11.780;2024-01-11T00:16:36;382.20;;;15.00;;
57826;SDS011;43656;57.746;11.780;2024-01-11T00:19:01;230.23;;;15.23;;
57826;SDS011;43656;57.746;11.780;2024-01-11T00:21:27;347.25;;;14.68;;
57826;SDS011;43656;57.746;11.780;2024-01-11T00:23:52;412.30;;;18.30;;
57826;SDS011;43656;57.746;11.780;2024-01-11T00:26:18;447.73;;;17.70;;
57826;SDS011;43656;57.746;11.780;2024-01-11T00:28:44;336.35;;;17.27;;
57826;SDS011;43656;57.746;11.780;2024-01-11T00:31:10;218.95;;;14.32;;
57826;SDS011;43656;57.746;11.780;2024-01-11T00:33:35;487.08;;;20.77;;
57826;SDS011;43656;57.746;11.780;2024-01-11T00:36:01;389.73;;;19.58;;
57826;SDS011;43656;57.746;11.780;2024-01-11T00:38:28;398.85;;;20.60;;
57826;SDS011;43656;57.746;11.780;2024-01-11T00:40:55;347.20;;;13.05;;
57826;SDS011;43656;57.746;11.780;2024-01-11T00:43:20;294.63;;;13.48;;
57826;SDS011;43656;57.746;11.780;2024-01-11T00:45:45;274.60;;;13.43;;
57826;SDS011;43656;57.746;11.780;2024-01-11T00:48:11;148.35;;;7.43;;
57826;SDS011;43656;57.746;11.780;2024-01-11T00:50:38;434.05;;;19.73;;
57826;SDS011;43656;57.746;11.780;2024-01-11T00:53:03;198.52;;;11.18;;
57826;SDS011;43656;57.746;11.780;2024-01-11T00:55:29;354.23;;;16.35;;
57826;SDS011;43656;57.746;11.780;2024-01-11T00:57:54;205.10;;;10.82;;
57826;SDS011;43656;57.746;11.780;2024-01-11T01:00:20;143.88;;;10.48;;
57826;SDS011;43656;57.746;11.780;2024-01-11T01:02:46;227.95;;;11.18;;
57826;SDS011;43656;57.746;11.780;2024-01-11T01:05:11;209.35;;;11.25;;
57826;SDS011;43656;57.746;11.780;2024-01-11T01:07:37;167.88;;;8.60;;
57826;SDS011;43656;57.746;11.780;2024-01-11T01:10:02;215.48;;;10.38;;
57826;SDS011;43656;57.746;11.780;2024-01-11T01:12:28;259.15;;;13.02;;
57826;SDS011;43656;57.746;11.780;2024-01-11T01:14:54;329.00;;;15.13;;
57826;SDS011;43656;57.746;11.780;2024-01-11T01:17:21;267.58;;;13.10;;
57826;SDS011;43656;57.746;11.780;2024-01-11T01:19:47;185.05;;;9.85;;
57826;SDS011;43656;57.746;11.780;2024-01-11T01:22:12;104.25;;;8.10;;
57826;SDS011;43656;57.746;11.780;2024-01-11T01:24:38;240.93;;;13.63;;
57826;SDS011;43656;57.746;11.780;2024-01-11T01:27:03;216.25;;;10.90;;
57826;SDS011;43656;57.746;11.780;2024-01-11T01:29:28;321.15;;;18.55;;
57826;SDS011;43656;57.746;11.780;2024-01-11T01:31:54;513.65;;;21.45;;
57826;SDS011;43656;57.746;11.780;2024-01-11T01:34:19;445.80;;;20.92;;
57826;SDS011;43656;57.746;11.780;2024-01-11T01:36:44;146.68;;;10.40;;
57826;SDS011;43656;57.746;11.780;2024-01-11T01:39:10;321.42;;;17.42;;
57826;SDS011;43656;57.746;11.780;2024-01-11T01:41:36;426.13;;;20.25;;
57826;SDS011;43656;57.746;11.780;2024-01-11T01:44:01;368.65;;;19.40;;
57826;SDS011;43656;57.746;11.780;2024-01-11T01:46:27;552.65;;;28.45;;
57826;SDS011;43656;57.746;11.780;2024-01-11T01:48:53;487.05;;;26.10;;
57826;SDS011;43656;57.746;11.780;2024-01-11T01:51:20;252.93;;;14.82;;
57826;SDS011;43656;57.746;11.780;2024-01-11T01:53:47;174.90;;;16.40;;
57826;SDS011;43656;57.746;11.780;2024-01-11T01:56:15;322.38;;;20.67;;
57826;SDS011;43656;57.746;11.780;2024-01-11T01:58:42;316.85;;;15.63;;
57826;SDS011;43656;57.746;11.780;2024-01-11T02:01:08;193.70;;;13.00;;
57826;SDS011;43656;57.746;11.780;2024-01-11T02:03:33;310.27;;;14.30;;
57826;SDS011;43656;57.746;11.780;2024-01-11T02:06:02;330.80;;;15.93;;
57826;SDS011;43656;57.746;11.780;2024-01-11T02:08:30;246.00;;;10.57;;
57826;SDS011;43656;57.746;11.780;2024-01-11T02:10:59;546.05;;;27.90;;
57826;SDS011;43656;57.746;11.780;2024-01-11T02:13:25;521.70;;;23.67;;
57826;SDS011;43656;57.746;11.780;2024-01-11T02:15:50;439.70;;;20.77;;
57826;SDS011;43656;57.746;11.780;2024-01-11T02:18:16;388.60;;;16.45;;
57826;SDS011;43656;57.746;11.780;2024-01-11T02:20:41;438.90;;;19.38;;
57826;SDS011;43656;57.746;11.780;2024-01-11T02:23:08;305.52;;;15.63;;
57826;SDS011;43656;57.746;11.780;2024-01-11T02:25:39;521.30;;;25.10;;
57826;SDS011;43656;57.746;11.780;2024-01-11T02:28:05;501.35;;;25.00;;
57826;SDS011;43656;57.746;11.780;2024-01-11T02:30:30;603.92;;;29.25;;
57826;SDS011;43656;57.746;11.780;2024-01-11T02:32:56;489.02;;;25.00;;
57826;SDS011;43656;57.746;11.780;2024-01-11T02:35:22;610.92;;;31.90;;
57826;SDS011;43656;57.746;11.780;2024-01-11T02:37:49;507.45;;;29.60;;
57826;SDS011;43656;57.746;11.780;2024-01-11T02:40:15;380.85;;;31.92;;
57826;SDS011;43656;57.746;11.780;2024-01-11T02:42:40;121.13;;;29.98;;
57826;SDS011;43656;57.746;11.780;2024-01-11T02:45:06;265.13;;;34.55;;
57826;SDS011;43656;57.746;11.780;2024-01-11T02:47:32;426.23;;;31.52;;
57826;SDS011;43656;57.746;11.780;2024-01-11T02:49:57;817.63;;;44.17;;
57826;SDS011;43656;57.746;11.780;2024-01-11T02:52:23;945.22;;;49.90;;
57826;SDS011;43656;57.746;11.780;2024-01-11T02:54:48;607.92;;;38.22;;
57826;SDS011;43656;57.746;11.780;2024-01-11T02:57:14;207.18;;;31.25;;
57826;SDS011;43656;57.746;11.780;2024-01-11T02:59:42;171.23;;;37.28;;
57826;SDS011;43656;57.746;11.780;2024-01-11T03:02:08;117.82;;;36.45;;
57826;SDS011;43656;57.746;11.780;2024-01-11T03:04:33;123.53;;;31.60;;
57826;SDS011;43656;57.746;11.780;2024-01-11T03:06:59;136.60;;;39.95;;
57826;SDS011;43656;57.746;11.780;2024-01-11T03:09:25;108.65;;;27.23;;
57826;SDS011;43656;57.746;11.780;2024-01-11T03:11:50;945.80;;;79.03;;
57826;SDS011;43656;57.746;11.780;2024-01-11T03:14:16;1228.15;;;85.78;;
57826;SDS011;43656;57.746;11.780;2024-01-11T03:16:41;1206.65;;;86.70;;
57826;SDS011;43656;57.746;11.780;2024-01-11T03:19:07;987.38;;;67.65;;
57826;SDS011;43656;57.746;11.780;2024-01-11T03:21:33;968.50;;;66.88;;
57826;SDS011;43656;57.746;11.780;2024-01-11T03:23:58;1292.93;;;80.90;;
57826;SDS011;43656;57.746;11.780;2024-01-11T03:26:25;1314.05;;;80.72;;
57826;SDS011;43656;57.746;11.780;2024-01-11T03:28:51;944.90;;;64.55;;
57826;SDS011;43656;57.746;11.780;2024-01-11T03:31:16;885.72;;;57.47;;
57826;SDS011;43656;57.746;11.780;2024-01-11T03:33:41;989.88;;;63.60;;
57826;SDS011;43656;57.746;11.780;2024-01-11T03:36:10;1044.75;;;59.20;;
57826;SDS011;43656;57.746;11.780;2024-01-11T03:38:36;618.80;;;43.45;;
57826;SDS011;43656;57.746;11.780;2024-01-11T03:41:02;988.90;;;50.83;;
57826;SDS011;43656;57.746;11.780;2024-01-11T03:43:32;673.53;;;50.67;;
57826;SDS011;43656;57.746;11.780;2024-01-11T03:45:57;578.60;;;42.95;;
57826;SDS011;43656;57.746;11.780;2024-01-11T03:48:23;756.53;;;45.55;;
57826;SDS011;43656;57.746;11.780;2024-01-11T03:50:48;400.25;;;33.60;;
57826;SDS011;43656;57.746;11.780;2024-01-11T03:53:13;292.40;;;28.77;;
57826;SDS011;43656;57.746;11.780;2024-01-11T03:55:39;375.48;;;31.58;;
57826;SDS011;43656;57.746;11.780;2024-01-11T03:58:04;295.83;;;30.25;;
57826;SDS011;43656;57.746;11.780;2024-01-11T04:00:29;427.50;;;32.45;;
57826;SDS011;43656;57.746;11.780;2024-01-11T04:02:55;292.83;;;27.95;;
57826;SDS011;43656;57.746;11.780;2024-01-11T04:05:20;182.68;;;24.63;;
57826;SDS011;43656;57.746;11.780;2024-01-11T04:07:45;407.33;;;35.13;;
57826;SDS011;43656;57.746;11.780;2024-01-11T04:10:11;423.98;;;32.20;;
57826;SDS011;43656;57.746;11.780;2024-01-11T04:12:36;355.42;;;31.00;;
57826;SDS011;43656;57.746;11.780;2024-01-11T04:15:02;484.92;;;33.80;;
57826;SDS011;43656;57.746;11.780;2024-01-11T04:17:28;281.48;;;25.70;;
57826;SDS011;43656;57.746;11.780;2024-01-11T04:19:54;119.60;;;23.50;;
57826;SDS011;43656;57.746;11.780;2024-01-11T04:22:21;88.15;;;20.98;;
57826;SDS011;43656;57.746;11.780;2024-01-11T04:24:46;243.10;;;25.63;;
57826;SDS011;43656;57.746;11.780;2024-01-11T04:27:11;235.13;;;26.85;;
57826;SDS011;43656;57.746;11.780;2024-01-11T04:29:37;203.18;;;23.27;;
57826;SDS011;43656;57.746;11.780;2024-01-11T04:32:02;149.13;;;21.58;;
57826;SDS011;43656;57.746;11.780;2024-01-11T04:34:28;411.33;;;28.20;;
57826;SDS011;43656;57.746;11.780;2024-01-11T04:36:53;352.42;;;29.38;;
57826;SDS011;43656;57.746;11.780;2024-01-11T04:39:19;383.38;;;28.80;;
57826;SDS011;43656;57.746;11.780;2024-01-11T04:41:44;142.15;;;21.90;;
57826;SDS011;43656;57.746;11.780;2024-01-11T04:44:10;140.02;;;25.77;;
57826;SDS011;43656;57.746;11.780;2024-01-11T04:46:35;137.10;;;25.15;;
57826;SDS011;43656;57.746;11.780;2024-01-11T04:49:01;141.02;;;28.40;;
57826;SDS011;43656;57.746;11.780;2024-01-11T04:51:26;276.42;;;30.80;;
57826;SDS011;43656;57.746;11.780;2024-01-11T04:53:51;46.33;;;20.48;;
57826;SDS011;43656;57.746;11.780;2024-01-11T04:56:17;41.45;;;21.20;;
57826;SDS011;43656;57.746;11.780;2024-01-11T04:58:43;40.92;;;20.67;;
57826;SDS011;43656;57.746;11.780;2024-01-11T05:01:12;32.42;;;18.80;;
57826;SDS011;43656;57.746;11.780;2024-01-11T05:03:38;38.72;;;22.92;;
57826;SDS011;43656;57.746;11.780;2024-01-11T05:06:04;31.48;;;18.95;;
57826;SDS011;43656;57.746;11.780;2024-01-11T05:08:29;36.70;;;21.02;;
57826;SDS011;43656;57.746;11.780;2024-01-11T05:10:55;36.85;;;20.60;;
57826;SDS011;43656;57.746;11.780;2024-01-11T05:13:20;32.35;;;18.80;;
57826;SDS011;43656;57.746;11.780;2024-01-11T05:15:46;27.33;;;17.77;;
57826;SDS011;43656;57.746;11.780;2024-01-11T05:18:11;27.52;;;17.65;;
57826;SDS011;43656;57.746;11.780;2024-01-11T05:20:37;25.00;;;17.33;;
57826;SDS011;43656;57.746;11.780;2024-01-11T05:23:04;30.13;;;18.00;;
57826;SDS011;43656;57.746;11.780;2024-01-11T05:25:30;34.03;;;21.73;;
57826;SDS011;43656;57.746;11.780;2024-01-11T05:27:59;30.77;;;19.13;;
57826;SDS011;43656;57.746;11.780;2024-01-11T05:30:29;34.78;;;20.30;;
57826;SDS011;43656;57.746;11.780;2024-01-11T05:32:55;32.17;;;20.67;;
57826;SDS011;43656;57.746;11.780;2024-01-11T05:35:21;36.72;;;22.38;;
57826;SDS011;43656;57.746;11.780;2024-01-11T05:37:49;34.47;;;21.38;;
57826;SDS011;43656;57.746;11.780;2024-01-11T05:40:17;32.60;;;21.25;;
57826;SDS011;43656;57.746;11.780;2024-01-11T05:42:42;35.65;;;21.75;;
57826;SDS011;43656;57.746;11.780;2024-01-11T05:45:09;35.65;;;21.98;;
57826;SDS011;43656;57.746;11.780;2024-01-11T05:47:34;37.95;;;23.17;;
57826;SDS011;43656;57.746;11.780;2024-01-11T05:50:01;33.53;;;21.23;;
57826;SDS011;43656;57.746;11.780;2024-01-11T05:52:27;32.88;;;19.88;;
57826;SDS011;43656;57.746;11.780;2024-01-11T05:54:52;34.63;;;22.05;;
57826;SDS011;43656;57.746;11.780;2024-01-11T05:57:17;34.90;;;21.67;;
57826;SDS011;43656;57.746;11.780;2024-01-11T05:59:43;32.42;;;19.83;;
57826;SDS011;43656;57.746;11.780;2024-01-11T06:02:09;36.97;;;19.23;;
57826;SDS011;43656;57.746;11.780;2024-01-11T06:04:35;26.80;;;17.52;;
57826;SDS011;43656;57.746;11.780;2024-01-11T06:07:01;31.85;;;20.67;;
57826;SDS011;43656;57.746;11.780;2024-01-11T06:09:26;33.50;;;18.95;;
57826;SDS011;43656;57.746;11.780;2024-01-11T06:11:52;29.33;;;18.33;;
57826;SDS011;43656;57.746;11.780;2024-01-11T06:14:17;24.75;;;17.02;;
57826;SDS011;43656;57.746;11.780;2024-01-11T06:16:43;23.00;;;15.65;;
57826;SDS011;43656;57.746;11.780;2024-01-11T06:19:08;23.55;;;16.55;;
57826;SDS011;43656;57.746;11.780;2024-01-11T06:21:34;26.85;;;18.40;;
57826;SDS011;43656;57.746;11.780;2024-01-11T06:23:59;24.85;;;16.10;;
57826;SDS011;43656;57.746;11.780;2024-01-11T06:26:30;29.15;;;17.77;;
57826;SDS011;43656;57.746;11.780;2024-01-11T06:28:56;29.67;;;17.23;;
57826;SDS011;43656;57.746;11.780;2024-01-11T06:31:21;28.42;;;17.20;;
57826;SDS011;43656;57.746;11.780;2024-01-11T06:33:46;25.15;;;16.77;;
57826;SDS011;43656;57.746;11.780;2024-01-11T06:36:12;23.92;;;15.90;;
57826;SDS011;43656;57.746;11.780;2024-01-11T06:38:37;27.98;;;16.10;;
57826;SDS011;43656;57.746;11.780;2024-01-11T06:41:03;28.00;;;17.08;;
57826;SDS011;43656;57.746;11.780;2024-01-11T06:43:28;27.50;;;16.30;;
57826;SDS011;43656;57.746;11.780;2024-01-11T06:45:53;24.15;;;16.48;;
57826;SDS011;43656;57.746;11.780;2024-01-11T06:48:19;23.55;;;15.73;;
57826;SDS011;43656;57.746;11.780;2024-01-11T06:50:44;24.13;;;15.60;;
57826;SDS011;43656;57.746;11.780;2024-01-11T06:53:10;21.48;;;14.02;;
57826;SDS011;43656;57.746;11.780;2024-01-11T06:55:35;24.33;;;15.95;;
57826;SDS011;43656;57.746;11.780;2024-01-11T06:58:01;23.75;;;14.88;;
57826;SDS011;43656;57.746;11.780;2024-01-11T07:00:28;22.35;;;13.93;;
57826;SDS011;43656;57.746;11.780;2024-01-11T07:02:53;23.05;;;15.57;;
57826;SDS011;43656;57.746;11.780;2024-01-11T07:05:19;28.50;;;16.40;;
57826;SDS011;43656;57.746;11.780;2024-01-11T07:07:44;23.92;;;15.07;;
57826;SDS011;43656;57.746;11.780;2024-01-11T07:10:10;24.38;;;14.57;;
57826;SDS011;43656;57.746;11.780;2024-01-11T07:12:35;27.75;;;16.15;;
57826;SDS011;43656;57.746;11.780;2024-01-11T07:15:03;25.25;;;14.57;;
57826;SDS011;43656;57.746;11.780;2024-01-11T07:17:30;24.13;;;14.82;;
57826;SDS011;43656;57.746;11.780;2024-01-11T07:19:55;23.20;;;14.98;;
57826;SDS011;43656;57.746;11.780;2024-01-11T07:22:20;21.70;;;15.00;;
57826;SDS011;43656;57.746;11.780;2024-01-11T07:24:46;23.02;;;14.50;;
57826;SDS011;43656;57.746;11.780;2024-01-11T07:27:11;24.77;;;14.30;;
57826;SDS011;43656;57.746;11.780;2024-01-11T07:29:36;22.75;;;15.02;;
57826;SDS011;43656;57.746;11.780;2024-01-11T07:32:03;25.63;;;14.43;;
57826;SDS011;43656;57.746;11.780;2024-01-11T07:34:29;26.40;;;15.88;;
57826;SDS011;43656;57.746;11.780;2024-01-11T07:36:54;22.73;;;14.82;;
57826;SDS011;43656;57.746;11.780;2024-01-11T07:39:21;23.90;;;14.25;;
57826;SDS011;43656;57.746;11.780;2024-01-11T07:41:49;28.65;;;18.13;;
57826;SDS011;43656;57.746;11.780;2024-01-11T07:44:15;27.30;;;15.90;;
57826;SDS011;43656;57.746;11.780;2024-01-11T07:46:40;25.85;;;14.98;;
57826;SDS011;43656;57.746;11.780;2024-01-11T07:49:06;20.58;;;13.77;;
57826;SDS011;43656;57.746;11.780;2024-01-11T07:51:32;23.77;;;13.52;;
57826;SDS011;43656;57.746;11.780;2024-01-11T07:53:58;25.35;;;12.57;;
57826;SDS011;43656;57.746;11.780;2024-01-11T07:56:23;23.92;;;13.40;;
57826;SDS011;43656;57.746;11.780;2024-01-11T07:58:49;21.58;;;13.15;;
57826;SDS011;43656;57.746;11.780;2024-01-11T08:01:15;21.55;;;13.23;;
57826;SDS011;43656;57.746;11.780;2024-01-11T08:03:41;21.30;;;13.45;;
57826;SDS011;43656;57.746;11.780;2024-01-11T08:06:06;24.92;;;13.45;;
57826;SDS011;43656;57.746;11.780;2024-01-11T08:08:33;24.65;;;14.02;;
57826;SDS011;43656;57.746;11.780;2024-01-11T08:10:59;23.15;;;13.23;;
57826;SDS011;43656;57.746;11.780;2024-01-11T08:13:24;21.15;;;13.13;;
57826;SDS011;43656;57.746;11.780;2024-01-11T08:15:49;21.70;;;13.38;;
57826;SDS011;43656;57.746;11.780;2024-01-11T08:18:15;21.73;;;13.02;;
57826;SDS011;43656;57.746;11.780;2024-01-11T08:20:43;23.25;;;12.52;;
57826;SDS011;43656;57.746;11.780;2024-01-11T08:23:11;23.52;;;12.95;;
57826;SDS011;43656;57.746;11.780;2024-01-11T08:25:37;23.77;;;14.07;;
57826;SDS011;43656;57.746;11.780;2024-01-11T08:28:03;19.73;;;11.82;;
57826;SDS011;43656;57.746;11.780;2024-01-11T08:30:28;19.17;;;11.60;;
57826;SDS011;43656;57.746;11.780;2024-01-11T08:32:54;17.63;;;10.98;;
57826;SDS011;43656;57.746;11.780;2024-01-11T08:35:20;17.95;;;10.57;;
57826;SDS011;43656;57.746;11.780;2024-01-11T08:37:46;15.95;;;10.50;;
57826;SDS011;43656;57.746;11.780;2024-01-11T08:40:11;18.70;;;10.98;;
57826;SDS011;43656;57.746;11.780;2024-01-11T08:42:37;19.13;;;11.48;;
57826;SDS011;43656;57.746;11.780;2024-01-11T08:45:05;21.90;;;12.20;;
57826;SDS011;43656;57.746;11.780;2024-01-11T08:47:32;20.23;;;11.77;;
57826;SDS011;43656;57.746;11.780;2024-01-11T08:49:58;18.65;;;11.82;;
57826;SDS011;43656;57.746;11.780;2024-01-11T08:52:23;17.80;;;11.63;;
57826;SDS011;43656;57.746;11.780;2024-01-11T08:54:49;19.90;;;12.30;;
57826;SDS011;43656;57.746;11.780;2024-01-11T08:57:14;17.80;;;12.07;;
57826;SDS011;43656;57.746;11.780;2024-01-11T08:59:40;20.27;;;12.25;;
57826;SDS011;43656;57.746;11.780;2024-01-11T09:02:06;19.63;;;12.43;;
57826;SDS011;43656;57.746;11.780;2024-01-11T09:04:31;18.83;;;13.05;;
57826;SDS011;43656;57.746;11.780;2024-01-11T09:06:57;23.52;;;13.40;;
57826;SDS011;43656;57.746;11.780;2024-01-11T09:09:22;19.65;;;13.80;;
57826;SDS011;43656;57.746;11.780;2024-01-11T09:11:49;20.17;;;13.18;;
57826;SDS011;43656;57.746;11.780;2024-01-11T09:14:14;20.95;;;13.43;;
57826;SDS011;43656;57.746;11.780;2024-01-11T09:16:39;21.42;;;12.50;;
57826;SDS011;43656;57.746;11.780;2024-01-11T09:19:05;22.95;;;14.50;;
57826;SDS011;43656;57.746;11.780;2024-01-11T09:21:30;23.80;;;14.25;;
57826;SDS011;43656;57.746;11.780;2024-01-11T09:23:56;21.70;;;13.68;;
57826;SDS011;43656;57.746;11.780;2024-01-11T09:26:21;21.52;;;13.63;;
57826;SDS011;43656;57.746;11.780;2024-01-11T09:28:47;20.33;;;13.07;;
57826;SDS011;43656;57.746;11.780;2024-01-11T09:31:13;23.83;;;13.45;;
57826;SDS011;43656;57.746;11.780;2024-01-11T09:33:38;19.17;;;12.70;;
57826;SDS011;43656;57.746;11.780;2024-01-11T09:36:05;19.35;;;12.65;;
57826;SDS011;43656;57.746;11.780;2024-01-11T09:38:32;22.27;;;13.13;;
57826;SDS011;43656;57.746;11.780;2024-01-11T09:41:05;18.00;;;11.40;;
57826;SDS011;43656;57.746;11.780;2024-01-11T09:43:35;21.40;;;12.43;;
57826;SDS011;43656;57.746;11.780;2024-01-11T09:46:04;21.65;;;11.95;;
57826;SDS011;43656;57.746;11.780;2024-01-11T09:48:34;16.80;;;10.80;;
57826;SDS011;43656;57.746;11.780;2024-01-11T09:51:07;18.58;;;12.05;;
57826;SDS011;43656;57.746;11.780;2024-01-11T09:53:37;15.85;;;10.63;;
57826;SDS011;43656;57.746;11.780;2024-01-11T09:56:05;17.45;;;10.50;;
57826;SDS011;43656;57.746;11.780;2024-01-11T09:58:33;19.60;;;12.23;;
57826;SDS011;43656;57.746;11.780;2024-01-11T10:01:01;17.55;;;11.27;;
57826;SDS011;43656;57.746;11.780;2024-01-11T10:03:27;19.25;;;11.18;;
57826;SDS011;43656;57.746;11.780;2024-01-11T10:05:57;20.02;;;11.30;;
57826;SDS011;43656;57.746;11.780;2024-01-11T10:08:24;16.90;;;10.77;;
57826;SDS011;43656;57.746;11.780;2024-01-11T10:10:50;17.02;;;10.20;;
57826;SDS011;43656;57.746;11.780;2024-01-11T10:13:16;19.20;;;11.18;;
57826;SDS011;43656;57.746;11.780;2024-01-11T10:15:41;18.00;;;10.27;;
57826;SDS011;43656;57.746;11.780;2024-01-11T10:18:10;17.85;;;11.10;;
57826;SDS011;43656;57.746;11.780;2024-01-11T10:20:37;22.27;;;12.38;;
57826;SDS011;43656;57.746;11.780;2024-01-11T10:23:02;18.23;;;11.40;;
57826;SDS011;43656;57.746;11.780;2024-01-11T10:25:28;16.67;;;11.00;;
57826;SDS011;43656;57.746;11.780;2024-01-11T10:27:54;23.85;;;13.15;;
57826;SDS011;43656;57.746;11.780;2024-01-11T10:30:22;17.10;;;11.95;;
57826;SDS011;43656;57.746;11.780;2024-01-11T10:32:49;12.50;;;9.20;;
57826;SDS011;43656;57.746;11.780;2024-01-11T10:35:14;14.77;;;8.73;;
57826;SDS011;43656;57.746;11.780;2024-01-11T10:37:43;16.20;;;10.18;;
57826;SDS011;43656;57.746;11.780;2024-01-11T10:40:09;14.35;;;8.75;;
57826;SDS011;43656;57.746;11.780;2024-01-11T10:42:44;11.73;;;7.35;;
57826;SDS011;43656;57.746;11.780;2024-01-11T10:45:13;10.82;;;7.20;;
57826;SDS011;43656;57.746;11.780;2024-01-11T10:47:42;12.55;;;7.32;;
57826;SDS011;43656;57.746;11.780;2024-01-11T10:50:16;13.48;;;7.53;;
57826;SDS011;43656;57.746;11.780;2024-01-11T10:52:42;13.02;;;7.95;;
57826;SDS011;43656;57.746;11.780;2024-01-11T10:55:23;10.15;;;7.15;;
57826;SDS011;43656;57.746;11.780;2024-01-11T10:57:50;14.63;;;8.80;;
57826;SDS011;43656;57.746;11.780;2024-01-11T11:00:16;16.48;;;8.50;;
57826;SDS011;43656;57.746;11.780;2024-01-11T11:02:43;13.57;;;8.07;;
57826;SDS011;43656;57.746;11.780;2024-01-11T11:05:11;10.95;;;7.50;;
57826;SDS011;43656;57.746;11.780;2024-01-11T11:07:38;13.45;;;8.40;;
57826;SDS011;43656;57.746;11.780;2024-01-11T11:10:04;13.25;;;8.90;;
57826;SDS011;43656;57.746;11.780;2024-01-11T11:12:32;12.00;;;7.93;;
57826;SDS011;43656;57.746;11.780;2024-01-11T11:14:59;12.95;;;7.78;;
57826;SDS011;43656;57.746;11.780;2024-01-11T11:17:27;12.82;;;8.40;;
57826;SDS011;43656;57.746;11.780;2024-01-11T11:19:54;16.40;;;7.75;;
57826;SDS011;43656;57.746;11.780;2024-01-11T11:22:19;11.82;;;7.65;;
57826;SDS011;43656;57.746;11.780;2024-01-11T11:24:45;12.27;;;7.85;;
57826;SDS011;43656;57.746;11.780;2024-01-11T11:27:14;13.63;;;8.40;;
57826;SDS011;43656;57.746;11.780;2024-01-11T11:29:39;11.57;;;7.10;;
57826;SDS011;43656;57.746;11.780;2024-01-11T11:32:05;11.10;;;6.97;;
57826;SDS011;43656;57.746;11.780;2024-01-11T11:34:40;10.85;;;6.47;;
57826;SDS011;43656;57.746;11.780;2024-01-11T11:37:09;10.70;;;6.97;;
57826;SDS011;43656;57.746;11.780;2024-01-11T11:39:35;10.98;;;6.97;;
57826;SDS011;43656;57.746;11.780;2024-01-11T11:42:06;9.50;;;7.10;;
57826;SDS011;43656;57.746;11.780;2024-01-11T11:44:32;10.30;;;7.18;;
57826;SDS011;43656;57.746;11.780;2024-01-11T11:49:57;11.10;;;6.30;;
57826;SDS011;43656;57.746;11.780;2024-01-11T11:52:24;11.27;;;6.78;;
57826;SDS011;43656;57.746;11.780;2024-01-11T11:54:50;12.77;;;8.25;;
57826;SDS011;43656;57.746;11.780;2024-01-11T11:57:16;8.93;;;5.93;;
57826;SDS011;43656;57.746;11.780;2024-01-11T11:59:42;11.57;;;6.50;;
57826;SDS011;43656;57.746;11.780;2024-01-11T12:02:08;13.27;;;7.70;;
57826;SDS011;43656;57.746;11.780;2024-01-11T12:04:45;11.02;;;6.38;;
57826;SDS011;43656;57.746;11.780;2024-01-11T12:07:12;9.05;;;5.50;;
57826;SDS011;43656;57.746;11.780;2024-01-11T12:09:37;7.88;;;5.43;;
57826;SDS011;43656;57.746;11.780;2024-01-11T12:12:03;9.18;;;6.07;;
57826;SDS011;43656;57.746;11.780;2024-01-11T12:14:29;7.40;;;5.72;;
57826;SDS011;43656;57.746;11.780;2024-01-11T12:16:58;7.95;;;5.35;;
57826;SDS011;43656;57.746;11.780;2024-01-11T12:19:23;9.07;;;5.47;;
57826;SDS011;43656;57.746;11.780;2024-01-11T12:21:49;9.65;;;5.85;;
57826;SDS011;43656;57.746;11.780;2024-01-11T12:24:15;6.90;;;5.18;;
57826;SDS011;43656;57.746;11.780;2024-01-11T12:26:41;7.68;;;5.30;;
57826;SDS011;43656;57.746;11.780;2024-01-11T12:29:07;7.43;;;4.47;;
57826;SDS011;43656;57.746;11.780;2024-01-11T12:31:34;9.32;;;5.03;;
57826;SDS011;43656;57.746;11.780;2024-01-11T12:34:00;7.50;;;5.38;;
57826;SDS011;43656;57.746;11.780;2024-01-11T12:36:26;8.38;;;5.57;;
57826;SDS011;43656;57.746;11.780;2024-01-11T12:38:53;8.75;;;5.43;;
57826;SDS011;43656;57.746;11.780;2024-01-11T12:41:19;8.20;;;5.38;;
57826;SDS011;43656;57.746;11.780;2024-01-11T12:43:46;6.95;;;4.82;;
57826;SDS011;43656;57.746;11.780;2024-01-11T12:46:11;7.18;;;5.20;;
57826;SDS011;43656;57.746;11.780;2024-01-11T12:48:37;8.35;;;5.53;;
57826;SDS011;43656;57.746;11.780;2024-01-11T12:51:04;8.10;;;5.22;;
57826;SDS011;43656;57.746;11.780;2024-01-11T12:53:30;10.15;;;5.90;;
57826;SDS011;43656;57.746;11.780;2024-01-11T12:56:05;7.10;;;4.50;;
57826;SDS011;43656;57.746;11.780;2024-01-11T12:58:38;7.82;;;5.07;;
57826;SDS011;43656;57.746;11.780;2024-01-11T13:01:04;9.00;;;5.03;;
57826;SDS011;43656;57.746;11.780;2024-01-11T13:03:32;8.52;;;4.80;;
57826;SDS011;43656;57.746;11.780;2024-01-11T13:05:58;7.68;;;4.47;;
57826;SDS011;43656;57.746;11.780;2024-01-11T13:08:24;8.57;;;4.18;;
57826;SDS011;43656;57.746;11.780;2024-01-11T13:10:50;6.43;;;4.30;;
57826;SDS011;43656;57.746;11.780;2024-01-11T13:13:15;5.90;;;3.78;;
57826;SDS011;43656;57.746;11.780;2024-01-11T13:15:41;5.78;;;4.25;;
57826;SDS011;43656;57.746;11.780;2024-01-11T13:18:06;6.03;;;3.80;;
57826;SDS011;43656;57.746;11.780;2024-01-11T13:20:32;6.80;;;4.30;;
57826;SDS011;43656;57.746;11.780;2024-01-11T13:23:13;5.25;;;3.60;;
57826;SDS011;43656;57.746;11.780;2024-01-11T13:25:41;5.03;;;3.60;;
57826;SDS011;43656;57.746;11.780;2024-01-11T13:28:07;5.72;;;3.45;;
57826;SDS011;43656;57.746;11.780;2024-01-11T13:30:33;6.20;;;2.97;;
57826;SDS011;43656;57.746;11.780;2024-01-11T13:32:58;5.28;;;3.28;;
57826;SDS011;43656;57.746;11.780;2024-01-11T13:35:25;5.03;;;2.63;;
57826;SDS011;43656;57.746;11.780;2024-01-11T13:37:50;3.60;;;2.40;;
57826;SDS011;43656;57.746;11.780;2024-01-11T13:40:16;3.88;;;1.60;;
57826;SDS011;43656;57.746;11.780;2024-01-11T13:42:42;3.67;;;2.00;;
57826;SDS011;43656;57.746;11.780;2024-01-11T13:45:08;3.08;;;1.70;;
57826;SDS011;43656;57.746;11.780;2024-01-11T13:47:34;2.67;;;1.42;;
57826;SDS011;43656;57.746;11.780;2024-01-11T13:50:00;2.55;;;1.35;;
57826;SDS011;43656;57.746;11.780;2024-01-11T13:52:26;4.32;;;1.40;;
57826;SDS011;43656;57.746;11.780;2024-01-11T13:54:51;4.13;;;1.50;;
57826;SDS011;43656;57.746;11.780;2024-01-11T13:57:16;3.50;;;1.50;;
57826;SDS011;43656;57.746;11.780;2024-01-11T13:59:42;3.30;;;1.50;;
57826;SDS011;43656;57.746;11.780;2024-01-11T14:02:07;2.65;;;1.25;;
57826;SDS011;43656;57.746;11.780;2024-01-11T14:04:33;2.20;;;1.20;;
57826;SDS011;43656;57.746;11.780;2024-01-11T14:06:59;3.97;;;1.38;;